메인 페이지
METAR-TAF:

METAR-TAF

공항 :

Le Touquet, 프랑스

위도: 50-30-53N, 경도: 001-37-39E, 고도: 6m

현재 날씨관측

예보는 32분 전, 17:30시(UTC)에 발표되었습니다.
7kt서남서풍과 북서풍을 오가는
온도 19°C
습도 83%
기압 1020 hPa
시정 10km 이상
고도 1100ft 상공 구름 조금
고도 5600ft 상공 구름 많음
고도 6600ft 상공 흐림

METAR: LFAT 231730Z AUTO 28007KT 250V310 9999 FEW011 BKN056 OVC066 19/16 Q1020 NOSIG

시각: 20:02 (18:02 UTC)

예보

예보는 4 시간 2분 전, 14:00시(UTC)에 발표되었습니다.
예보 대상 시간: 23일 15시부터 23일 24시까지 (UTC)
10kt
시정 10km 이상
고도 1300ft 상공 구름 보통
고도 3500ft 상공 구름 많음
일시적
23일 20시부터 23일 24시까지 (UTC)
시정: 3000m
고도 500ft 상공 구름 많음
박무
전환 중
23일 20시부터 23일 24시까지 (UTC)
5kt

TAF: LFAT 231400Z 2315/2324 26010KT 9999 SCT013 BKN035 TEMPO 2320/2324 3000 BR BKN005 BECMG 2320/2324 09005KT

4,000개 이상의 공항 관측 자료 및 예보 (METAR 및 TAF 보고).

지도상에서 검색 가능한 기상관측소가 노란 점과 빨간 점으로 표시되어 있습니다.

기상관측소 명을 보려면 표시 위로 마우스를 이동하세요.

날씨 관측과 예보를 보려면 클릭하세요.

지도 변경 : 확대하려면 엑스 표시가 있는 녹색 버튼, 축소하려면 빼기 표시가 있는 녹색 버튼, 다음 페이지의 지도를 보려면 녹색 화살표를 클릭하세요.


METAR-TAF: